^^
Datos históricos de la estación: Murcia-Puente Tocinos
Diario Informe para Junio 18, 2021 Unidades:  Ambas    Ingés   Métrico
Diario Semanal Mensual Anual
  Máxima: Mínima: Promedio:
Temperatura: 82.2 °F /  27.9 °C 70.7 °F /  21.5 °C 76.5 °F /  24.7 °C
Punto de rocio: 66 °F /  18.9 °C 58.1 °F /  14.5 °C 61.9 °F /  16.6 °C
Humedad: 80% 48.4% 61%
Velocidad viento: 11.4mph /  18.4km/h - 5.7mph /  9.1km/h
Racha viento: 22mph /  35.4km/h - -
Viento- - SE
Presión: 29.9 in /  1013.1 hPa 29.8 in /  1010.0 hPa -
Precipitación: 0 in /  0.0 mm    
 
 
Tabla de datos para Junio 18, 2021
Hora Temperatura Punto de rocio Presión Viento Velocidad viento Racha viento Humedad Intensidad lluvia(por hora) Nubes
00:04 78.3 °F /  25.7 °C 60.6 °F /  15.9 °C 29.8in /  1010.4hPa Calm   3mph /  4.8km/h 54.8% 0in /  0.0mm
00:09 78.3 °F /  25.7 °C 60.6 °F /  15.9 °C 29.8in /  1010.4hPa SO 1.1mph /  1.8km/h 3mph /  4.8km/h 54.7% 0in /  0.0mm
00:14 78.1 °F /  25.6 °C 60.8 °F /  16 °C 29.8in /  1010.3hPa Oeste 1.8mph /  2.9km/h 3.5mph /  5.6km/h 55.5% 0in /  0.0mm
00:19 78.1 °F /  25.6 °C 60.8 °F /  16 °C 29.8in /  1010.3hPa NO 1.8mph /  2.9km/h 3.6mph /  5.8km/h 55.7% 0in /  0.0mm
00:24 77.7 °F /  25.4 °C 60.8 °F /  16 °C 29.8in /  1010.4hPa NO 1.8mph /  2.9km/h 4.6mph /  7.4km/h 56% 0in /  0.0mm
00:29 77.7 °F /  25.4 °C 61.2 °F /  16.2 °C 29.8in /  1010.4hPa NO 2.5mph /  4km/h 5.9mph /  9.5km/h 56.7% 0in /  0.0mm
00:34 77.5 °F /  25.3 °C 61.3 °F /  16.3 °C 29.8in /  1010.4hPa ONO 2.9mph /  4.6km/h 6mph /  9.7km/h 57.5% 0in /  0.0mm
00:39 77.4 °F /  25.2 °C 61.5 °F /  16.4 °C 29.8in /  1010.5hPa Oeste 3mph /  4.9km/h 4.6mph /  7.4km/h 58.3% 0in /  0.0mm
00:44 77.2 °F /  25.1 °C 61.7 °F /  16.5 °C 29.8in /  1010.5hPa OSO 3.1mph /  5km/h 5mph /  8km/h 59% 0in /  0.0mm
00:49 77.2 °F /  25.1 °C 61.7 °F /  16.5 °C 29.8in /  1010.5hPa SO 2.7mph /  4.3km/h 3.6mph /  5.8km/h 59% 0in /  0.0mm
00:54 77.2 °F /  25.1 °C 61.7 °F /  16.5 °C 29.8in /  1010.7hPa SO 2.4mph /  3.9km/h 3.6mph /  5.8km/h 59% 0in /  0.0mm
00:59 77.2 °F /  25.1 °C 61.7 °F /  16.5 °C 29.8in /  1010.7hPa OSO 2.4mph /  3.9km/h 4.7mph /  7.6km/h 59% 0in /  0.0mm
01:04 77.2 °F /  25.1 °C 61.7 °F /  16.5 °C 29.8in /  1010.7hPa Oeste 2.4mph /  3.9km/h 6.9mph /  11.1km/h 59% 0in /  0.0mm
01:09 76.8 °F /  24.9 °C 61.7 °F /  16.5 °C 29.9in /  1010.9hPa NO 2.9mph /  4.6km/h 7mph /  11.3km/h 59.6% 0in /  0.0mm
01:14 76.6 °F /  24.8 °C 61.7 °F /  16.5 °C 29.9in /  1010.9hPa NO 3.1mph /  5km/h 4.7mph /  7.6km/h 60% 0in /  0.0mm
01:19 76.5 °F /  24.7 °C 61.9 °F /  16.6 °C 29.9in /  1010.9hPa NO 3mph /  4.8km/h 5.8mph /  9.3km/h 60.8% 0in /  0.0mm
01:24 76.3 °F /  24.6 °C 61.7 °F /  16.5 °C 29.9in /  1010.9hPa NO 2.9mph /  4.7km/h 6mph /  9.7km/h 61% 0in /  0.0mm
01:29 75.9 °F /  24.4 °C 62.1 °F /  16.7 °C 29.9in /  1010.8hPa NO 2.9mph /  4.6km/h 5mph /  8km/h 62% 0in /  0.0mm
01:34 75.9 °F /  24.4 °C 62.1 °F /  16.7 °C 29.9in /  1010.8hPa NNO 2.9mph /  4.7km/h 3.5mph /  5.6km/h 62% 0in /  0.0mm
01:39 75.7 °F /  24.3 °C 62.1 °F /  16.7 °C 29.9in /  1010.8hPa NNO 2.4mph /  3.8km/h 4.7mph /  7.6km/h 62.7% 0in /  0.0mm
01:44 75.6 °F /  24.2 °C 62.4 °F /  16.9 °C 29.9in /  1010.8hPa North 2mph /  3.2km/h 4.6mph /  7.4km/h 63.9% 0in /  0.0mm
01:49 75.2 °F /  24 °C 62.6 °F /  17 °C 29.9in /  1010.8hPa North 2.2mph /  3.6km/h 5mph /  8km/h 65% 0in /  0.0mm
01:54 75 °F /  23.9 °C 62.4 °F /  16.9 °C 29.9in /  1010.8hPa NNO 2.4mph /  3.9km/h 4.6mph /  7.4km/h 65% 0in /  0.0mm
01:59 74.8 °F /  23.8 °C 62.2 °F /  16.8 °C 29.8in /  1010.7hPa North 2.1mph /  3.4km/h 5mph /  8km/h 65% 0in /  0.0mm
02:04 74.7 °F /  23.7 °C 62.2 °F /  16.8 °C 29.8in /  1010.7hPa NNO 2mph /  3.2km/h 3mph /  4.8km/h 65% 0in /  0.0mm
02:09 74.7 °F /  23.7 °C 62.4 °F /  16.9 °C 29.9in /  1010.9hPa NNO 1.9mph /  3km/h 2.9mph /  4.7km/h 65.8% 0in /  0.0mm
02:14 74.5 °F /  23.6 °C 62.2 °F /  16.8 °C 29.9in /  1010.9hPa NNE 1.8mph /  2.9km/h 5.9mph /  9.5km/h 65.6% 0in /  0.0mm
02:19 74.1 °F /  23.4 °C 61.9 °F /  16.6 °C 29.9in /  1010.9hPa SE 2.4mph /  3.9km/h 6.9mph /  11.1km/h 65.4% 0in /  0.0mm
02:24 73.9 °F /  23.3 °C 61.7 °F /  16.5 °C 29.9in /  1011.1hPa ESE 2.9mph /  4.7km/h 9.2mph /  14.8km/h 65.6% 0in /  0.0mm
02:29 73.8 °F /  23.2 °C 61.2 °F /  16.2 °C 29.9in /  1011.1hPa ESE 4.4mph /  7.1km/h 8.1mph /  13km/h 64.7% 0in /  0.0mm
02:34 73.8 °F /  23.2 °C 60.8 °F /  16 °C 29.9in /  1011.1hPa SE 5.4mph /  8.7km/h 6.9mph /  11.1km/h 63.8% 0in /  0.0mm
02:39 73.9 °F /  23.3 °C 60.4 °F /  15.8 °C 29.9in /  1011.1hPa SSO 4.8mph /  7.7km/h 6.2mph /  10km/h 62.6% 0in /  0.0mm
02:44 74.3 °F /  23.5 °C 60.4 °F /  15.8 °C 29.9in /  1010.8hPa OSO 4.3mph /  6.9km/h 6mph /  9.7km/h 61.9% 0in /  0.0mm
02:49 74.5 °F /  23.6 °C 60.6 °F /  15.9 °C 29.9in /  1010.8hPa Oeste 3.2mph /  5.1km/h 3.6mph /  5.8km/h 61.9% 0in /  0.0mm
02:54 74.7 °F /  23.7 °C 60.6 °F /  15.9 °C 29.9in /  1010.8hPa NE 2.4mph /  3.9km/h 5.2mph /  8.4km/h 61.6% 0in /  0.0mm
02:59 74.7 °F /  23.7 °C 60.8 °F /  16 °C 29.8in /  1010.7hPa NE 2.7mph /  4.4km/h 5mph /  8km/h 62% 0in /  0.0mm
03:04 74.7 °F /  23.7 °C 60.8 °F /  16 °C 29.8in /  1010.7hPa NE 2.9mph /  4.6km/h 5mph /  8km/h 62% 0in /  0.0mm
03:09 74.7 °F /  23.7 °C 60.8 °F /  16 °C 29.8in /  1010.7hPa ONO 2.2mph /  3.5km/h 3.5mph /  5.6km/h 62% 0in /  0.0mm
03:14 74.7 °F /  23.7 °C 61.2 °F /  16.2 °C 29.8in /  1010.6hPa ONO 1.8mph /  2.9km/h 4mph /  6.4km/h 62.9% 0in /  0.0mm
03:19 74.5 °F /  23.6 °C 61 °F /  16.1 °C 29.8in /  1010.6hPa OSO 1.9mph /  3.1km/h 4.6mph /  7.4km/h 63% 0in /  0.0mm
03:24 74.1 °F /  23.4 °C 61.2 °F /  16.2 °C 29.8in /  1010.7hPa OSO 2mph /  3.2km/h 5mph /  8km/h 63.9% 0in /  0.0mm
03:29 74.1 °F /  23.4 °C 61.2 °F /  16.2 °C 29.8in /  1010.7hPa NNO 1.9mph /  3km/h 4.6mph /  7.4km/h 64% 0in /  0.0mm
03:34 73.9 °F /  23.3 °C 61.3 °F /  16.3 °C 29.8in /  1010.7hPa ONO 1.8mph /  2.9km/h 4.6mph /  7.4km/h 64.8% 0in /  0.0mm
03:39 73.9 °F /  23.3 °C 61.3 °F /  16.3 °C 29.9in /  1010.8hPa SO 2.2mph /  3.5km/h 4.6mph /  7.4km/h 65% 0in /  0.0mm
03:44 73.8 °F /  23.2 °C 61.7 °F /  16.5 °C 29.9in /  1010.8hPa ONO 2.4mph /  3.9km/h 5mph /  8km/h 65.9% 0in /  0.0mm
03:49 73.8 °F /  23.2 °C 62.1 °F /  16.7 °C 29.9in /  1010.8hPa NNO 2.2mph /  3.5km/h 5mph /  8km/h 66.8% 0in /  0.0mm
03:54 73.6 °F /  23.1 °C 61.9 °F /  16.6 °C 29.9in /  1010.8hPa North 2mph /  3.2km/h 3.5mph /  5.6km/h 67% 0in /  0.0mm
03:59 73.6 °F /  23.1 °C 61.9 °F /  16.6 °C 29.8in /  1010.1hPa North 1.9mph /  3km/h 3mph /  4.8km/h 67% 0in /  0.0mm
04:04 73.4 °F /  23 °C 61.9 °F /  16.6 °C 29.8in /  1010.1hPa NNE 1.8mph /  2.9km/h 3.5mph /  5.6km/h 67.3% 0in /  0.0mm
04:09 73.2 °F /  22.9 °C 61.7 °F /  16.5 °C 29.8in /  1010.3hPa NE 1.6mph /  2.5km/h 3.5mph /  5.6km/h 67.2% 0in /  0.0mm
04:14 73.2 °F /  22.9 °C 62.1 °F /  16.7 °C 29.8in /  1010.3hPa NE 1.4mph /  2.2km/h 4mph /  6.4km/h 68% 0in /  0.0mm
04:19 73 °F /  22.8 °C 62.1 °F /  16.7 °C 29.8in /  1010.3hPa Este 2.1mph /  3.3km/h 5mph /  8km/h 68.4% 0in /  0.0mm
04:24 72.5 °F /  22.5 °C 62.1 °F /  16.7 °C 29.8in /  1010.3hPa ESE 2.4mph /  3.9km/h 5mph /  8km/h 69.7% 0in /  0.0mm
04:29 72.3 °F /  22.4 °C 62.2 °F /  16.8 °C 29.8in /  1010.3hPa ESE 2.4mph /  3.9km/h 5mph /  8km/h 70.4% 0in /  0.0mm
04:34 72.3 °F /  22.4 °C 62.4 °F /  16.9 °C 29.8in /  1010.3hPa SE 2.4mph /  3.9km/h 4.6mph /  7.4km/h 71% 0in /  0.0mm
04:39 72.3 °F /  22.4 °C 62.2 °F /  16.8 °C 29.8in /  1010.3hPa SSE 2.7mph /  4.4km/h 5.4mph /  8.7km/h 70.7% 0in /  0.0mm
04:44 72.3 °F /  22.4 °C 62.1 °F /  16.7 °C 29.8in /  1010.0hPa SSE 2.9mph /  4.7km/h 5.8mph /  9.3km/h 70% 0in /  0.0mm
04:49 72.3 °F /  22.4 °C 62.1 °F /  16.7 °C 29.8in /  1010.0hPa Sur 3mph /  4.9km/h 4.6mph /  7.4km/h 70% 0in /  0.0mm
04:54 72.3 °F /  22.4 °C 61.9 °F /  16.6 °C 29.8in /  1010.1hPa SSE 3.1mph /  5km/h 5.9mph /  9.5km/h 69.7% 0in /  0.0mm
04:59 72.3 °F /  22.4 °C 61.7 °F /  16.5 °C 29.8in /  1010.1hPa SSE 2.4mph /  3.8km/h 6mph /  9.7km/h 69.3% 0in /  0.0mm
05:04 72.3 °F /  22.4 °C 61.5 °F /  16.4 °C 29.8in /  1010.1hPa SSE 2mph /  3.2km/h 5mph /  8km/h 69.1% 0in /  0.0mm
05:09 72.3 °F /  22.4 °C 61.5 °F /  16.4 °C 29.8in /  1010.1hPa SO 2.7mph /  4.3km/h 5.8mph /  9.3km/h 69% 0in /  0.0mm
05:14 72.3 °F /  22.4 °C 61.5 °F /  16.4 °C 29.8in /  1010.1hPa OSO 3.1mph /  5km/h 3.6mph /  5.8km/h 69% 0in /  0.0mm
05:19 72.5 °F /  22.5 °C 61.7 °F /  16.5 °C 29.8in /  1010.1hPa SO 2.7mph /  4.3km/h 4.7mph /  7.6km/h 69% 0in /  0.0mm
05:24 72.5 °F /  22.5 °C 61.5 °F /  16.4 °C 29.8in /  1010.1hPa SO 2.4mph /  3.9km/h 5.2mph /  8.4km/h 68.7% 0in /  0.0mm
05:29 72.3 °F /  22.4 °C 61.2 °F /  16.2 °C 29.8in /  1010.1hPa SO 2.9mph /  4.6km/h 5.2mph /  8.4km/h 68% 0in /  0.0mm
05:34 72.3 °F /  22.4 °C 61.2 °F /  16.2 °C 29.8in /  1010.1hPa SSO 3.1mph /  5km/h 5.2mph /  8.4km/h 68% 0in /  0.0mm
05:39 72.3 °F /  22.4 °C 61.2 °F /  16.2 °C 29.8in /  1010.1hPa SSO 3.1mph /  5km/h 5mph /  8km/h 68% 0in /  0.0mm
05:44 72.3 °F /  22.4 °C 61.2 °F /  16.2 °C 29.8in /  1010.1hPa SO 3.1mph /  5km/h 5.2mph /  8.4km/h 68% 0in /  0.0mm
05:49 72.1 °F /  22.3 °C 61 °F /  16.1 °C 29.8in /  1010.1hPa SO 3mph /  4.8km/h 5mph /  8km/h 68% 0in /  0.0mm
05:54 72.1 °F /  22.3 °C 61 °F /  16.1 °C 29.8in /  1010.3hPa SO 2.9mph /  4.7km/h 6.2mph /  10km/h 68% 0in /  0.0mm
05:59 72.1 °F /  22.3 °C 61 °F /  16.1 °C 29.8in /  1010.3hPa SO 3mph /  4.9km/h 6mph /  9.7km/h 68% 0in /  0.0mm
06:04 72 °F /  22.2 °C 60.8 °F /  16 °C 29.8in /  1010.3hPa OSO 3.1mph /  5km/h 5mph /  8km/h 68% 0in /  0.0mm
06:09 72 °F /  22.2 °C 60.6 °F /  15.9 °C 29.8in /  1010.3hPa OSO 3mph /  4.8km/h 5.9mph /  9.5km/h 68% 0in /  0.0mm
06:14 71.8 °F /  22.1 °C 60.6 °F /  15.9 °C 29.8in /  1010.3hPa SO 2.9mph /  4.7km/h 6mph /  9.7km/h 68% 0in /  0.0mm
06:19 71.4 °F /  21.9 °C 60.3 °F /  15.7 °C 29.8in /  1010.3hPa SO 3.6mph /  5.8km/h 4.6mph /  7.4km/h 68% 0in /  0.0mm
06:24 71.4 °F /  21.9 °C 60.3 °F /  15.7 °C 29.8in /  1010.5hPa SO 4mph /  6.4km/h 4.7mph /  7.6km/h 68% 0in /  0.0mm
06:29 71.4 °F /  21.9 °C 60.3 °F /  15.7 °C 29.8in /  1010.5hPa SO 3mph /  4.9km/h 4.6mph /  7.4km/h 68% 0in /  0.0mm
06:34 71.4 °F /  21.9 °C 60.3 °F /  15.7 °C 29.8in /  1010.5hPa SO 2.4mph /  3.9km/h 3.6mph /  5.8km/h 68% 0in /  0.0mm
06:39 71.4 °F /  21.9 °C 60.3 °F /  15.7 °C 29.8in /  1010.6hPa Sur 2.4mph /  3.9km/h 5.9mph /  9.5km/h 68% 0in /  0.0mm
06:44 71.2 °F /  21.8 °C 60.3 °F /  15.7 °C 29.8in /  1010.6hPa Sur 2.4mph /  3.9km/h 5.9mph /  9.5km/h 68.3% 0in /  0.0mm
06:49 71.1 °F /  21.7 °C 60.4 °F /  15.8 °C 29.8in /  1010.6hPa SSE 3.4mph /  5.5km/h 6.9mph /  11.1km/h 69% 0in /  0.0mm
06:54 71.1 °F /  21.7 °C 60.3 °F /  15.7 °C 29.8in /  1010.6hPa Sur 4mph /  6.4km/h 7.6mph /  12.2km/h 69% 0in /  0.0mm
06:59 70.9 °F /  21.6 °C 60.1 °F /  15.6 °C 29.8in /  1010.6hPa SSO 4.2mph /  6.7km/h 8.7mph /  14km/h 68.9% 0in /  0.0mm
07:04 70.7 °F /  21.5 °C 59.7 °F /  15.4 °C 29.8in /  1010.6hPa SSO 4.3mph /  6.9km/h 9mph /  14.5km/h 68.4% 0in /  0.0mm
07:09 70.7 °F /  21.5 °C 59.5 °F /  15.3 °C 29.8in /  1010.6hPa SSO 4.3mph /  6.9km/h 8.1mph /  13km/h 68% 0in /  0.0mm
07:14 70.7 °F /  21.5 °C 59.5 °F /  15.3 °C 29.8in /  1010.6hPa Sur 4.3mph /  6.9km/h 6.9mph /  11.1km/h 68% 0in /  0.0mm
07:19 70.7 °F /  21.5 °C 59.7 °F /  15.4 °C 29.8in /  1010.6hPa Sur 4.5mph /  7.3km/h 7.4mph /  11.9km/h 68% 0in /  0.0mm
07:24 70.7 °F /  21.5 °C 59.4 °F /  15.2 °C 29.8in /  1010.7hPa Sur 4.7mph /  7.6km/h 7mph /  11.3km/h 67.2% 0in /  0.0mm
07:29 70.7 °F /  21.5 °C 59.2 °F /  15.1 °C 29.8in /  1010.7hPa SSO 4.7mph /  7.6km/h 8.5mph /  13.7km/h 67% 0in /  0.0mm
07:34 70.7 °F /  21.5 °C 59.2 °F /  15.1 °C 29.8in /  1010.7hPa Sur 4.7mph /  7.6km/h 9mph /  14.5km/h 67% 0in /  0.0mm
07:39 70.9 °F /  21.6 °C 59.4 °F /  15.2 °C 29.9in /  1010.8hPa Sur 4.7mph /  7.6km/h 8.1mph /  13km/h 67% 0in /  0.0mm
07:44 70.7 °F /  21.5 °C 59.4 °F /  15.2 °C 29.9in /  1010.8hPa SSO 4.7mph /  7.6km/h 8.5mph /  13.7km/h 67% 0in /  0.0mm
07:49 70.7 °F /  21.5 °C 59.2 °F /  15.1 °C 29.9in /  1010.8hPa Sur 5.2mph /  8.3km/h 9.2mph /  14.8km/h 67% 0in /  0.0mm
07:54 70.7 °F /  21.5 °C 59.2 °F /  15.1 °C 29.9in /  1010.8hPa Sur 5.4mph /  8.7km/h 9mph /  14.5km/h 67% 0in /  0.0mm
07:59 70.9 °F /  21.6 °C 59.4 °F /  15.2 °C 29.8in /  1010.7hPa Sur 5.3mph /  8.5km/h 6.9mph /  11.1km/h 67% 0in /  0.0mm
08:04 71.1 °F /  21.7 °C 59.2 °F /  15.1 °C 29.8in /  1010.7hPa Sur 5.2mph /  8.4km/h 7mph /  11.3km/h 66.1% 0in /  0.0mm
08:09 71.1 °F /  21.7 °C 58.8 °F /  14.9 °C 29.8in /  1010.7hPa SSO 5.2mph /  8.4km/h 7.4mph /  11.9km/h 65.5% 0in /  0.0mm
08:14 71.2 °F /  21.8 °C 59.2 °F /  15.1 °C 29.8in /  1010.7hPa Sur 5.2mph /  8.4km/h 6.9mph /  11.1km/h 65.9% 0in /  0.0mm
08:19 71.2 °F /  21.8 °C 59.2 °F /  15.1 °C 29.8in /  1010.7hPa SSO 4.6mph /  7.4km/h 7mph /  11.3km/h 65.4% 0in /  0.0mm
08:24 71.6 °F /  22 °C 59 °F /  15 °C 29.9in /  1010.8hPa SO 4.3mph /  6.9km/h 6mph /  9.7km/h 64.6% 0in /  0.0mm
08:29 72 °F /  22.2 °C 59 °F /  15 °C 29.9in /  1010.8hPa SSO 3.9mph /  6.2km/h 6.9mph /  11.1km/h 64% 0in /  0.0mm
08:34 72 °F /  22.2 °C 58.8 °F /  14.9 °C 29.9in /  1010.8hPa SSO 3.6mph /  5.8km/h 6.9mph /  11.1km/h 63.4% 0in /  0.0mm
08:39 72.1 °F /  22.3 °C 58.6 °F /  14.8 °C 29.9in /  1011.0hPa SSO 3.2mph /  5.2km/h 7mph /  11.3km/h 62.2% 0in /  0.0mm
08:44 72.5 °F /  22.5 °C 58.5 °F /  14.7 °C 29.9in /  1011.0hPa SSO 3.1mph /  5km/h 8.5mph /  13.7km/h 61.4% 0in /  0.0mm
08:49 72.7 °F /  22.6 °C 58.1 °F /  14.5 °C 29.9in /  1011.0hPa SO 3.8mph /  6.1km/h 9mph /  14.5km/h 60.3% 0in /  0.0mm
08:54 72.9 °F /  22.7 °C 58.3 °F /  14.6 °C 29.9in /  1011.2hPa SSO 4.3mph /  6.9km/h 6.9mph /  11.1km/h 60% 0in /  0.0mm
08:59 73 °F /  22.8 °C 58.3 °F /  14.6 °C 29.9in /  1011.2hPa SSO 4.1mph /  6.6km/h 7mph /  11.3km/h 60% 0in /  0.0mm
09:04 73 °F /  22.8 °C 58.3 °F /  14.6 °C 29.9in /  1011.2hPa SSO 4mph /  6.5km/h 9.2mph /  14.8km/h 60% 0in /  0.0mm
09:09 73 °F /  22.8 °C 58.3 °F /  14.6 °C 29.9in /  1011.3hPa SSO 3.5mph /  5.6km/h 9mph /  14.5km/h 60% 0in /  0.0mm
09:14 73 °F /  22.8 °C 58.5 °F /  14.7 °C 29.9in /  1011.3hPa SSO 3.1mph /  5km/h 5.9mph /  9.5km/h 60% 0in /  0.0mm
09:19 73.2 °F /  22.9 °C 58.1 °F /  14.5 °C 29.9in /  1011.3hPa SSO 3.1mph /  5km/h 6mph /  9.7km/h 59.3% 0in /  0.0mm
09:24 73.2 °F /  22.9 °C 58.1 °F /  14.5 °C 29.9in /  1011.3hPa SSO 3.1mph /  5km/h 5.8mph /  9.3km/h 59.1% 0in /  0.0mm
09:29 73.4 °F /  23 °C 58.6 °F /  14.8 °C 29.9in /  1011.3hPa OSO 3.1mph /  5km/h 6mph /  9.7km/h 60% 0in /  0.0mm
09:34 73.6 °F /  23.1 °C 58.8 °F /  14.9 °C 29.9in /  1011.3hPa Oeste 3.1mph /  5km/h 5.2mph /  8.4km/h 60% 0in /  0.0mm
09:39 73.6 °F /  23.1 °C 58.8 °F /  14.9 °C 29.9in /  1011.3hPa OSO 3mph /  4.8km/h 3.6mph /  5.8km/h 60% 0in /  0.0mm
09:44 73.8 °F /  23.2 °C 59.4 °F /  15.2 °C 29.9in /  1011.3hPa SO 2.9mph /  4.6km/h 5.9mph /  9.5km/h 60.6% 0in /  0.0mm
09:49 73.9 °F /  23.3 °C 59.2 °F /  15.1 °C 29.9in /  1011.3hPa SSO 3mph /  4.8km/h 6mph /  9.7km/h 60.1% 0in /  0.0mm
09:54 73.9 °F /  23.3 °C 59.2 °F /  15.1 °C 29.9in /  1011.3hPa Oeste 3.1mph /  5km/h 4.6mph /  7.4km/h 60% 0in /  0.0mm
09:59 74.3 °F /  23.5 °C 59.2 °F /  15.1 °C 29.9in /  1011.3hPa ONO 2.4mph /  3.8km/h 5mph /  8km/h 59.2% 0in /  0.0mm
10:04 74.5 °F /  23.6 °C 59.2 °F /  15.1 °C 29.9in /  1011.3hPa Oeste 2mph /  3.2km/h 5mph /  8km/h 59% 0in /  0.0mm
10:09 74.7 °F /  23.7 °C 59.2 °F /  15.1 °C 29.9in /  1011.7hPa SO 2mph /  3.2km/h 4.6mph /  7.4km/h 58.4% 0in /  0.0mm
10:14 74.7 °F /  23.7 °C 59.2 °F /  15.1 °C 29.9in /  1011.7hPa SSO 2mph /  3.2km/h 2.9mph /  4.7km/h 58.2% 0in /  0.0mm
10:19 74.8 °F /  23.8 °C 59.2 °F /  15.1 °C 29.9in /  1011.7hPa SSO 1.6mph /  2.6km/h 3mph /  4.8km/h 58% 0in /  0.0mm
10:24 75.2 °F /  24 °C 59.4 °F /  15.2 °C 29.9in /  1011.7hPa SSO 1.4mph /  2.2km/h 3.5mph /  5.6km/h 58% 0in /  0.0mm
10:29 75.6 °F /  24.2 °C 59.7 °F /  15.4 °C 29.9in /  1011.3hPa Oeste 1.4mph /  2.2km/h 3.6mph /  5.8km/h 58% 0in /  0.0mm
10:34 75.7 °F /  24.3 °C 59.7 °F /  15.4 °C 29.9in /  1011.3hPa NNE 1.4mph /  2.2km/h 4mph /  6.4km/h 57.5% 0in /  0.0mm
10:39 76.1 °F /  24.5 °C 59.7 °F /  15.4 °C 29.9in /  1011.5hPa NE 1.7mph /  2.7km/h 4mph /  6.4km/h 57% 0in /  0.0mm
10:44 76.5 °F /  24.7 °C 59.7 °F /  15.4 °C 29.9in /  1011.5hPa NNE 1.8mph /  2.9km/h 3.6mph /  5.8km/h 56.3% 0in /  0.0mm
10:49 76.6 °F /  24.8 °C 59.9 °F /  15.5 °C 29.9in /  1011.5hPa NO 1.9mph /  3.1km/h 4.6mph /  7.4km/h 56% 0in /  0.0mm
10:54 76.8 °F /  24.9 °C 59.7 °F /  15.4 °C 29.9in /  1011.6hPa NNO 2mph /  3.2km/h 4.6mph /  7.4km/h 55.8% 0in /  0.0mm
10:59 76.8 °F /  24.9 °C 59.5 °F /  15.3 °C 29.9in /  1011.6hPa NNO 2.2mph /  3.6km/h 4.7mph /  7.6km/h 55.2% 0in /  0.0mm
11:04 76.8 °F /  24.9 °C 59.9 °F /  15.5 °C 29.9in /  1011.6hPa NNO 2.4mph /  3.9km/h 5mph /  8km/h 56% 0in /  0.0mm
11:09 77 °F /  25 °C 60.4 °F /  15.8 °C 29.9in /  1011.6hPa NNO 2.4mph /  3.9km/h 6.2mph /  10km/h 56.5% 0in /  0.0mm
11:14 77.4 °F /  25.2 °C 61.2 °F /  16.2 °C 29.9in /  1011.4hPa North 2.4mph /  3.9km/h 5.9mph /  9.5km/h 57.5% 0in /  0.0mm
11:19 77.4 °F /  25.2 °C 61.9 °F /  16.6 °C 29.9in /  1011.4hPa NNE 2.8mph /  4.5km/h 6.9mph /  11.1km/h 59% 0in /  0.0mm
11:24 77.4 °F /  25.2 °C 62.2 °F /  16.8 °C 29.9in /  1011.5hPa North 3.1mph /  5km/h 7mph /  11.3km/h 59.6% 0in /  0.0mm
11:29 77.5 °F /  25.3 °C 62.6 °F /  17 °C 29.9in /  1011.5hPa NNO 3.4mph /  5.5km/h 8.1mph /  13km/h 59.8% 0in /  0.0mm
11:34 77.9 °F /  25.5 °C 62.8 °F /  17.1 °C 29.9in /  1011.5hPa NNO 3.6mph /  5.8km/h 8.1mph /  13km/h 60% 0in /  0.0mm
11:39 78.1 °F /  25.6 °C 63.3 °F /  17.4 °C 29.9in /  1011.5hPa NNE 3.9mph /  6.2km/h 8.1mph /  13km/h 60.6% 0in /  0.0mm
11:44 77.7 °F /  25.4 °C 63.7 °F /  17.6 °C 29.9in /  1011.1hPa NNE 4mph /  6.4km/h 8.7mph /  14km/h 61.8% 0in /  0.0mm
11:49 77.5 °F /  25.3 °C 63 °F /  17.2 °C 29.9in /  1011.1hPa NE 4.8mph /  7.7km/h 9.2mph /  14.8km/h 61.1% 0in /  0.0mm
11:54 77.5 °F /  25.3 °C 63.3 °F /  17.4 °C 29.9in /  1011.4hPa NNE 5.4mph /  8.7km/h 9mph /  14.5km/h 61.9% 0in /  0.0mm
11:59 77.5 °F /  25.3 °C 63.5 °F /  17.5 °C 29.9in /  1011.4hPa NNE 5.4mph /  8.7km/h 10.4mph /  16.7km/h 62% 0in /  0.0mm
12:04 77.7 °F /  25.4 °C 63.9 °F /  17.7 °C 29.9in /  1011.4hPa NE 5.4mph /  8.7km/h 10mph /  16.1km/h 62.3% 0in /  0.0mm
12:09 77.9 °F /  25.5 °C 64.2 °F /  17.9 °C 29.9in /  1011.4hPa North 5.7mph /  9.2km/h 10.7mph /  17.2km/h 63% 0in /  0.0mm
12:14 78.1 °F /  25.6 °C 64.9 °F /  18.3 °C 29.9in /  1011.4hPa NNE 5.9mph /  9.5km/h 8.1mph /  13km/h 63.9% 0in /  0.0mm
12:19 78.3 °F /  25.7 °C 64.9 °F /  18.3 °C 29.9in /  1011.4hPa NNE 5.5mph /  8.8km/h 11.5mph /  18.5km/h 64% 0in /  0.0mm
12:24 78.4 °F /  25.8 °C 65.3 °F /  18.5 °C 29.9in /  1011.4hPa NNE 5.2mph /  8.4km/h 6.9mph /  11.1km/h 64% 0in /  0.0mm
12:29 79 °F /  26.1 °C 64.9 °F /  18.3 °C 29.9in /  1011.4hPa NNE 4.9mph /  7.9km/h 11.5mph /  18.5km/h 62.6% 0in /  0.0mm
12:34 79 °F /  26.1 °C 64.9 °F /  18.3 °C 29.9in /  1011.4hPa NNE 4.7mph /  7.6km/h 12mph /  19.3km/h 62.3% 0in /  0.0mm
12:39 79.2 °F /  26.2 °C 65.1 °F /  18.4 °C 29.9in /  1011.4hPa NE 5mph /  8km/h 10.4mph /  16.7km/h 62.3% 0in /  0.0mm
12:44 79.3 °F /  26.3 °C 64.9 °F /  18.3 °C 29.9in /  1011.2hPa NNE 5.2mph /  8.4km/h 12.7mph /  20.4km/h 61.3% 0in /  0.0mm
12:49 79.9 °F /  26.6 °C 63.7 °F /  17.6 °C 29.9in /  1011.2hPa NNE 5.3mph /  8.6km/h 17.8mph /  28.6km/h 57.8% 0in /  0.0mm
12:54 80.2 °F /  26.8 °C 63.1 °F /  17.3 °C 29.9in /  1011.3hPa NE 5.4mph /  8.7km/h 20.1mph /  32.3km/h 56.1% 0in /  0.0mm
12:59 80.6 °F /  27 °C 63 °F /  17.2 °C 29.9in /  1011.3hPa NE 8.9mph /  14.4km/h 21mph /  33.8km/h 55.3% 0in /  0.0mm
13:04 80.6 °F /  27 °C 62.6 °F /  17 °C 29.9in /  1011.3hPa NE 10.7mph /  17.2km/h 18.4mph /  29.6km/h 54.5% 0in /  0.0mm
13:09 80.4 °F /  26.9 °C 62.8 °F /  17.1 °C 29.9in /  1011.3hPa NE 11mph /  17.7km/h 18.5mph /  29.8km/h 54.9% 0in /  0.0mm
13:14 80.8 °F /  27.1 °C 62.6 °F /  17 °C 29.9in /  1011.2hPa NE 11.2mph /  18km/h 19mph /  30.6km/h 54.1% 0in /  0.0mm
13:19 80.4 °F /  26.9 °C 62.4 °F /  16.9 °C 29.9in /  1011.2hPa NE 10.3mph /  16.6km/h 20.8mph /  33.5km/h 54.4% 0in /  0.0mm
13:24 80.4 °F /  26.9 °C 62.2 °F /  16.8 °C 29.9in /  1011.2hPa NE 9.7mph /  15.6km/h 21mph /  33.8km/h 54% 0in /  0.0mm
13:29 80.2 °F /  26.8 °C 62.1 °F /  16.7 °C 29.9in /  1010.9hPa NE 10.3mph /  16.6km/h 19.7mph /  31.7km/h 54% 0in /  0.0mm
13:34 80.4 °F /  26.9 °C 62.4 °F /  16.9 °C 29.9in /  1010.9hPa NE 10.7mph /  17.2km/h 21.9mph /  35.2km/h 54.1% 0in /  0.0mm
13:39 80.8 °F /  27.1 °C 62.4 °F /  16.9 °C 29.9in /  1011.0hPa NE 10.7mph /  17.2km/h 22mph /  35.4km/h 53.8% 0in /  0.0mm
13:44 80.6 °F /  27 °C 62.1 °F /  16.7 °C 29.9in /  1011.0hPa ENE 10.7mph /  17.2km/h 18.4mph /  29.6km/h 53.1% 0in /  0.0mm
13:49 80.8 °F /  27.1 °C 61.2 °F /  16.2 °C 29.9in /  1011.0hPa NE 10.7mph /  17.2km/h 18mph /  29km/h 51.3% 0in /  0.0mm
13:54 80.8 °F /  27.1 °C 61 °F /  16.1 °C 29.9in /  1011.0hPa ENE 10.7mph /  17.2km/h 20.7mph /  33.3km/h 51% 0in /  0.0mm
13:59 80.6 °F /  27 °C 61.3 °F /  16.3 °C 29.9in /  1010.9hPa NE 9.4mph /  15.1km/h 21mph /  33.8km/h 52% 0in /  0.0mm
14:04 80.4 °F /  26.9 °C 61.3 °F /  16.3 °C 29.9in /  1010.9hPa ENE 8.7mph /  14km/h 17mph /  27.4km/h 52.3% 0in /  0.0mm
14:09 80.8 °F /  27.1 °C 62.6 °F /  17 °C 29.9in /  1010.9hPa ENE 8.9mph /  14.4km/h 15.2mph /  24.5km/h 54.1% 0in /  0.0mm
14:14 81 °F /  27.2 °C 63.3 °F /  17.4 °C 29.8in /  1010.6hPa NE 9.2mph /  14.8km/h 15.9mph /  25.6km/h 55.3% 0in /  0.0mm
14:19 80.8 °F /  27.1 °C 62.6 °F /  17 °C 29.8in /  1010.4hPa NE 8.8mph /  14.2km/h 16.1mph /  25.9km/h 54.1% 0in /  0.0mm
14:24 80.6 °F /  27 °C 62.6 °F /  17 °C 29.8in /  1010.7hPa NE 8.7mph /  14km/h 16mph /  25.7km/h 54.2% 0in /  0.0mm
14:29 80.4 °F /  26.9 °C 62.2 °F /  16.8 °C 29.8in /  1010.7hPa NE 8.8mph /  14.1km/h 15mph /  24.1km/h 54.1% 0in /  0.0mm
14:34 80.4 °F /  26.9 °C 62.4 °F /  16.9 °C 29.8in /  1010.7hPa NE 9.2mph /  14.8km/h 17.3mph /  27.8km/h 54.2% 0in /  0.0mm
14:39 80.4 °F /  26.9 °C 62.2 °F /  16.8 °C 29.8in /  1010.7hPa NE 9.7mph /  15.6km/h 17mph /  27.4km/h 54% 0in /  0.0mm
14:44 80.8 °F /  27.1 °C 62.8 °F /  17.1 °C 29.8in /  1010.6hPa NE 10mph /  16.1km/h 16mph /  25.7km/h 54.6% 0in /  0.0mm
14:49 81.1 °F /  27.3 °C 62.8 °F /  17.1 °C 29.8in /  1010.6hPa NE 8.4mph /  13.5km/h 19mph /  30.6km/h 53.4% 0in /  0.0mm
14:54 81.1 °F /  27.3 °C 62.8 °F /  17.1 °C 29.8in /  1010.6hPa NNE 7.4mph /  11.9km/h 19mph /  30.6km/h 53.6% 0in /  0.0mm
14:59 81.5 °F /  27.5 °C 63 °F /  17.2 °C 29.8in /  1010.6hPa NE 9.4mph /  15.1km/h 18mph /  29km/h 53.3% 0in /  0.0mm
15:04 81.9 °F /  27.7 °C 63.5 °F /  17.5 °C 29.8in /  1010.6hPa NE 10.2mph /  16.4km/h 19.7mph /  31.7km/h 54% 0in /  0.0mm
15:09 81.9 °F /  27.7 °C 63.1 °F /  17.3 °C 29.9in /  1010.8hPa NE 10.9mph /  17.5km/h 20mph /  32.2km/h 53.2% 0in /  0.0mm
15:14 81.9 °F /  27.7 °C 63.5 °F /  17.5 °C 29.9in /  1010.8hPa ENE 11.2mph /  18km/h 17mph /  27.4km/h 53.9% 0in /  0.0mm
15:19 81.9 °F /  27.7 °C 63.7 °F /  17.6 °C 29.9in /  1010.8hPa NE 9.7mph /  15.6km/h 18.4mph /  29.6km/h 54.2% 0in /  0.0mm
15:24 81.7 °F /  27.6 °C 63.5 °F /  17.5 °C 29.9in /  1010.8hPa ENE 8.7mph /  14km/h 21.3mph /  34.3km/h 54.1% 0in /  0.0mm
15:29 81.5 °F /  27.5 °C 63 °F /  17.2 °C 29.8in /  1010.7hPa ENE 10.5mph /  16.9km/h 21mph /  33.8km/h 53.5% 0in /  0.0mm
15:34 81.9 °F /  27.7 °C 62.8 °F /  17.1 °C 29.8in /  1010.7hPa NE 11.4mph /  18.4km/h 21mph /  33.8km/h 52.6% 0in /  0.0mm
15:39 81.9 °F /  27.7 °C 61.9 °F /  16.6 °C 29.8in /  1010.7hPa NE 10.5mph /  16.9km/h 15.2mph /  24.5km/h 50.9% 0in /  0.0mm
15:44 81.9 °F /  27.7 °C 61.3 °F /  16.3 °C 29.8in /  1010.5hPa ENE 10mph /  16.1km/h 13.7mph /  22km/h 49.8% 0in /  0.0mm
15:49 82 °F /  27.8 °C 61.3 °F /  16.3 °C 29.8in /  1010.5hPa NE 8.6mph /  13.8km/h 17.5mph /  28.2km/h 49.5% 0in /  0.0mm
15:54 82 °F /  27.8 °C 61.3 °F /  16.3 °C 29.8in /  1010.5hPa NE 7.6mph /  12.2km/h 17.3mph /  27.8km/h 49.8% 0in /  0.0mm
15:59 81.9 °F /  27.7 °C 62.2 °F /  16.8 °C 29.8in /  1010.4hPa ENE 9.1mph /  14.6km/h 15mph /  24.1km/h 51.4% 0in /  0.0mm
16:04 82 °F /  27.8 °C 61.3 °F /  16.3 °C 29.8in /  1010.4hPa NNE 10mph /  16.1km/h 17.3mph /  27.8km/h 49.7% 0in /  0.0mm
16:09 82 °F /  27.8 °C 60.8 °F /  16 °C 29.8in /  1010.4hPa NE 9.1mph /  14.7km/h 16.8mph /  27km/h 48.4% 0in /  0.0mm
16:14 82 °F /  27.8 °C 60.8 °F /  16 °C 29.8in /  1010.4hPa NE 8.5mph /  13.7km/h 19.2mph /  30.9km/h 48.9% 0in /  0.0mm
16:19 81.7 °F /  27.6 °C 61.5 °F /  16.4 °C 29.8in /  1010.4hPa NE 9.8mph /  15.7km/h 20mph /  32.2km/h 50.5% 0in /  0.0mm
16:24 81.7 °F /  27.6 °C 61.9 °F /  16.6 °C 29.8in /  1010.4hPa NE 10.7mph /  17.2km/h 19.7mph /  31.7km/h 51.2% 0in /  0.0mm
16:29 81.7 °F /  27.6 °C 61.9 °F /  16.6 °C 29.8in /  1010.4hPa NE 10.4mph /  16.7km/h 20mph /  32.2km/h 51% 0in /  0.0mm
16:34 81.9 °F /  27.7 °C 61.3 °F /  16.3 °C 29.8in /  1010.4hPa ENE 10.2mph /  16.4km/h 17.3mph /  27.8km/h 50.1% 0in /  0.0mm
16:39 82 °F /  27.8 °C 62.2 °F /  16.8 °C 29.8in /  1010.6hPa NE 8.9mph /  14.3km/h 16.1mph /  25.9km/h 51.2% 0in /  0.0mm
16:44 82.2 °F /  27.9 °C 61.9 °F /  16.6 °C 29.8in /  1010.6hPa ENE 8.1mph /  13km/h 15.2mph /  24.5km/h 50.2% 0in /  0.0mm
16:49 82 °F /  27.8 °C 61.5 °F /  16.4 °C 29.8in /  1010.6hPa NE 8.3mph /  13.4km/h 15mph /  24.1km/h 49.9% 0in /  0.0mm
16:54 82.2 °F /  27.9 °C 61.7 °F /  16.5 °C 29.8in /  1010.6hPa ENE 8.5mph /  13.7km/h 13.8mph /  22.2km/h 50% 0in /  0.0mm
16:59 82.2 °F /  27.9 °C 62.1 °F /  16.7 °C 29.8in /  1010.5hPa NE 8.5mph /  13.7km/h 16.3mph /  26.2km/h 50.5% 0in /  0.0mm
17:04 82.2 °F /  27.9 °C 61.5 °F /  16.4 °C 29.8in /  1010.5hPa NE 8.5mph /  13.7km/h 16mph /  25.7km/h 49.7% 0in /  0.0mm
17:09 82.2 °F /  27.9 °C 61.5 °F /  16.4 °C 29.9in /  1010.8hPa NE 8.3mph /  13.3km/h 18.5mph /  29.8km/h 49.8% 0in /  0.0mm
17:14 81.9 °F /  27.7 °C 62.1 °F /  16.7 °C 29.9in /  1010.8hPa NE 8.1mph /  13km/h 15mph /  24.1km/h 51.2% 0in /  0.0mm
17:19 81.9 °F /  27.7 °C 62.2 °F /  16.8 °C 29.9in /  1010.8hPa NE 9.3mph /  15km/h 19mph /  30.6km/h 51.5% 0in /  0.0mm
17:24 81.7 °F /  27.6 °C 62.6 °F /  17 °C 29.9in /  1010.8hPa NE 10.2mph /  16.4km/h 18.4mph /  29.6km/h 52.4% 0in /  0.0mm
17:29 81.5 °F /  27.5 °C 63.3 °F /  17.4 °C 29.8in /  1010.6hPa NE 10.9mph /  17.6km/h 20.8mph /  33.5km/h 54% 0in /  0.0mm
17:34 81.3 °F /  27.4 °C 63.5 °F /  17.5 °C 29.8in /  1010.6hPa ENE 11.4mph /  18.3km/h 20.7mph /  33.3km/h 54.8% 0in /  0.0mm
17:39 81.5 °F /  27.5 °C 63.7 °F /  17.6 °C 29.9in /  1010.8hPa Este 10.7mph /  17.2km/h 13.8mph /  22.2km/h 54.9% 0in /  0.0mm
17:44 81.7 °F /  27.6 °C 63.3 °F /  17.4 °C 29.9in /  1010.8hPa NE 10.2mph /  16.4km/h 14mph /  22.5km/h 53.9% 0in /  0.0mm
17:49 81.7 °F /  27.6 °C 63 °F /  17.2 °C 29.9in /  1010.8hPa NE 9.2mph /  14.8km/h 14mph /  22.5km/h 53.2% 0in /  0.0mm
17:54 81.7 °F /  27.6 °C 62.8 °F /  17.1 °C 29.9in /  1010.9hPa NE 8.5mph /  13.7km/h 14mph /  22.5km/h 53% 0in /  0.0mm
17:59 81.1 °F /  27.3 °C 62.4 °F /  16.9 °C 29.9in /  1010.9hPa NE 8.5mph /  13.7km/h 17.5mph /  28.2km/h 53% 0in /  0.0mm
18:04 81 °F /  27.2 °C 62.6 °F /  17 °C 29.9in /  1010.9hPa NE 8.5mph /  13.7km/h 19.7mph /  31.7km/h 53.8% 0in /  0.0mm
18:09 80.8 °F /  27.1 °C 62.6 °F /  17 °C 29.9in /  1010.9hPa NE 9.6mph /  15.4km/h 20mph /  32.2km/h 54% 0in /  0.0mm
18:14 81 °F /  27.2 °C 63 °F /  17.2 °C 29.8in /  1010.7hPa NE 10.2mph /  16.4km/h 16.1mph /  25.9km/h 54.7% 0in /  0.0mm
18:19 80.8 °F /  27.1 °C 63.3 °F /  17.4 °C 29.8in /  1010.7hPa NE 10.6mph /  17km/h 21.3mph /  34.3km/h 55.3% 0in /  0.0mm
18:24 80.4 °F /  26.9 °C 63.3 °F /  17.4 °C 29.8in /  1010.7hPa NE 10.7mph /  17.2km/h 21mph /  33.8km/h 56% 0in /  0.0mm
18:29 80.8 °F /  27.1 °C 63.5 °F /  17.5 °C 29.8in /  1010.7hPa NE 10.3mph /  16.5km/h 21mph /  33.8km/h 55.6% 0in /  0.0mm
18:34 80.8 °F /  27.1 °C 63.3 °F /  17.4 °C 29.8in /  1010.7hPa NE 10mph /  16.1km/h 15mph /  24.1km/h 55.6% 0in /  0.0mm
18:39 80.6 °F /  27 °C 63 °F /  17.2 °C 29.9in /  1011.0hPa NNE 10mph /  16.1km/h 14mph /  22.5km/h 55.1% 0in /  0.0mm
18:44 80.8 °F /  27.1 °C 62.6 °F /  17 °C 29.9in /  1011.0hPa NNE 10mph /  16.1km/h 12.7mph /  20.4km/h 54.1% 0in /  0.0mm
18:49 81.1 °F /  27.3 °C 62.8 °F /  17.1 °C 29.9in /  1011.0hPa NE 8.5mph /  13.7km/h 14mph /  22.5km/h 54% 0in /  0.0mm
18:54 81 °F /  27.2 °C 63 °F /  17.2 °C 29.9in /  1011.0hPa NE 7.6mph /  12.2km/h 14mph /  22.5km/h 54.3% 0in /  0.0mm
18:59 80.8 °F /  27.1 °C 62.8 °F /  17.1 °C 29.9in /  1010.9hPa NE 8.1mph /  13.1km/h 15mph /  24.1km/h 54.4% 0in /  0.0mm
19:04 80.4 °F /  26.9 °C 62.8 °F /  17.1 °C 29.9in /  1010.9hPa NE 8.5mph /  13.7km/h 15mph /  24.1km/h 55% 0in /  0.0mm
19:09 80.4 °F /  26.9 °C 62.2 °F /  16.8 °C 29.9in /  1010.9hPa NE 8.9mph /  14.4km/h 16.1mph /  25.9km/h 54.1% 0in /  0.0mm
19:14 80.4 °F /  26.9 °C 62.1 °F /  16.7 °C 29.9in /  1010.8hPa NNE 9.2mph /  14.8km/h 16.1mph /  25.9km/h 53.8% 0in /  0.0mm
19:19 80.2 °F /  26.8 °C 62.4 °F /  16.9 °C 29.8in /  1010.7hPa NNE 9.9mph /  15.9km/h 16.1mph /  25.9km/h 54.6% 0in /  0.0mm
19:24 80.6 °F /  27 °C 62.4 °F /  16.9 °C 29.9in /  1010.9hPa NE 10.2mph /  16.4km/h 13.5mph /  21.7km/h 54% 0in /  0.0mm
19:29 80.6 °F /  27 °C 61.9 °F /  16.6 °C 29.9in /  1010.9hPa NNE 9.2mph /  14.8km/h 16.1mph /  25.9km/h 53% 0in /  0.0mm
19:34 80.4 °F /  26.9 °C 61.2 °F /  16.2 °C 29.9in /  1010.9hPa NNE 8.5mph /  13.7km/h 15mph /  24.1km/h 52% 0in /  0.0mm
19:39 80.2 °F /  26.8 °C 62.4 °F /  16.9 °C 29.9in /  1010.9hPa NNE 8.6mph /  13.9km/h 17.5mph /  28.2km/h 54.4% 0in /  0.0mm
19:44 79.9 °F /  26.6 °C 61.3 °F /  16.3 °C 29.9in /  1010.9hPa NE 8.7mph /  14km/h 17mph /  27.4km/h 53.4% 0in /  0.0mm
19:49 79.9 °F /  26.6 °C 60.6 °F /  15.9 °C 29.9in /  1010.9hPa NE 10.3mph /  16.5km/h 16.1mph /  25.9km/h 51.7% 0in /  0.0mm
19:54 80.1 °F /  26.7 °C 60.6 °F /  15.9 °C 29.9in /  1011.2hPa NE 11.4mph /  18.4km/h 16.1mph /  25.9km/h 51.5% 0in /  0.0mm
19:59 80.1 °F /  26.7 °C 60.4 °F /  15.8 °C 29.9in /  1011.2hPa NE 9.6mph /  15.4km/h 16.1mph /  25.9km/h 51.3% 0in /  0.0mm
20:04 80.1 °F /  26.7 °C 59.9 °F /  15.5 °C 29.9in /  1011.2hPa NE 8.7mph /  14km/h 16.1mph /  25.9km/h 50.4% 0in /  0.0mm
20:09 80.1 °F /  26.7 °C 60.3 °F /  15.7 °C 29.9in /  1011.5hPa NNE 9mph /  14.5km/h 16.1mph /  25.9km/h 50.8% 0in /  0.0mm
20:14 80.1 °F /  26.7 °C 61 °F /  16.1 °C 29.9in /  1011.5hPa NE 9.2mph /  14.8km/h 14mph /  22.5km/h 52.3% 0in /  0.0mm
20:19 79.9 °F /  26.6 °C 62.6 °F /  17 °C 29.9in /  1011.5hPa NE 9.2mph /  14.8km/h 16.1mph /  25.9km/h 55.5% 0in /  0.0mm
20:24 79.5 °F /  26.4 °C 63.5 °F /  17.5 °C 29.9in /  1011.8hPa NE 9.2mph /  14.8km/h 17.3mph /  27.8km/h 58.2% 0in /  0.0mm
20:29 79.2 °F /  26.2 °C 64 °F /  17.8 °C 29.9in /  1011.8hPa NE 9.7mph /  15.6km/h 17.5mph /  28.2km/h 59.7% 0in /  0.0mm
20:34 79 °F /  26.1 °C 64.6 °F /  18.1 °C 29.9in /  1011.8hPa Este 10mph /  16.1km/h 13.8mph /  22.2km/h 61.5% 0in /  0.0mm
20:39 78.6 °F /  25.9 °C 64.9 °F /  18.3 °C 29.9in /  1012.0hPa Este 7.7mph /  12.4km/h 14mph /  22.5km/h 62.8% 0in /  0.0mm
20:44 78.4 °F /  25.8 °C 64.9 °F /  18.3 °C 29.9in /  1012.0hPa Este 6.4mph /  10.3km/h 12.7mph /  20.4km/h 63.2% 0in /  0.0mm
20:49 78.1 °F /  25.6 °C 64.9 °F /  18.3 °C 29.9in /  1012.0hPa Este 6.1mph /  9.8km/h 11.5mph /  18.5km/h 64% 0in /  0.0mm
20:54 77.5 °F /  25.3 °C 64.8 °F /  18.2 °C 29.9in /  1012.1hPa Este 5.9mph /  9.5km/h 10.7mph /  17.2km/h 64.8% 0in /  0.0mm
20:59 77.2 °F /  25.1 °C 64.6 °F /  18.1 °C 29.9in /  1012.1hPa Este 5.9mph /  9.5km/h 8.5mph /  13.7km/h 65% 0in /  0.0mm
21:04 77.2 °F /  25.1 °C 64.4 °F /  18 °C 29.9in /  1012.1hPa Este 5.9mph /  9.5km/h 9mph /  14.5km/h 65% 0in /  0.0mm
21:09 76.8 °F /  24.9 °C 64.4 °F /  18 °C 29.9in /  1012.1hPa NE 4.8mph /  7.7km/h 9.2mph /  14.8km/h 65.7% 0in /  0.0mm
21:14 76.5 °F /  24.7 °C 64.9 °F /  18.3 °C 29.9in /  1012.0hPa NNE 4mph /  6.4km/h 10.7mph /  17.2km/h 67.4% 0in /  0.0mm
21:19 76.1 °F /  24.5 °C 65.1 °F /  18.4 °C 29.9in /  1012.0hPa NNE 4.8mph /  7.8km/h 11mph /  17.7km/h 69% 0in /  0.0mm
21:24 75.7 °F /  24.3 °C 65.3 °F /  18.5 °C 29.9in /  1012.0hPa NE 5.4mph /  8.7km/h 12.7mph /  20.4km/h 70.4% 0in /  0.0mm
21:29 75.2 °F /  24 °C 65.3 °F /  18.5 °C 29.9in /  1012.0hPa NE 6.3mph /  10.2km/h 13mph /  20.9km/h 71.5% 0in /  0.0mm
21:34 74.8 °F /  23.8 °C 65.1 °F /  18.4 °C 29.9in /  1012.0hPa NE 6.9mph /  11.1km/h 11.5mph /  18.5km/h 72.1% 0in /  0.0mm
21:39 74.7 °F /  23.7 °C 65.3 °F /  18.5 °C 29.9in /  1012.0hPa NNE 6.9mph /  11.1km/h 12mph /  19.3km/h 73% 0in /  0.0mm
21:44 74.5 °F /  23.6 °C 65.5 °F /  18.6 °C 29.9in /  1012.0hPa NE 6.9mph /  11.1km/h 11.8mph /  19km/h 73.9% 0in /  0.0mm
21:49 74.1 °F /  23.4 °C 65.3 °F /  18.5 °C 29.9in /  1012.0hPa NE 7.2mph /  11.6km/h 13.8mph /  22.2km/h 74% 0in /  0.0mm
21:54 73.9 °F /  23.3 °C 65.5 °F /  18.6 °C 29.9in /  1012.2hPa NE 7.4mph /  11.9km/h 12.5mph /  20.1km/h 74.9% 0in /  0.0mm
21:59 73.8 °F /  23.2 °C 65.3 °F /  18.5 °C 29.9in /  1012.2hPa NE 7.8mph /  12.6km/h 12.7mph /  20.4km/h 75% 0in /  0.0mm
22:04 73.8 °F /  23.2 °C 65.3 °F /  18.5 °C 29.9in /  1012.2hPa NE 8.1mph /  13km/h 13mph /  20.9km/h 75.1% 0in /  0.0mm
22:09 73.6 °F /  23.1 °C 65.5 °F /  18.6 °C 29.9in /  1012.2hPa NNE 7.4mph /  11.9km/h 12mph /  19.3km/h 76% 0in /  0.0mm
22:14 73.4 °F /  23 °C 65.5 °F /  18.6 °C 29.9in /  1012.1hPa NNE 6.9mph /  11.1km/h 9.2mph /  14.8km/h 76% 0in /  0.0mm
22:19 73.2 °F /  22.9 °C 65.5 °F /  18.6 °C 29.9in /  1012.1hPa NNE 6.5mph /  10.4km/h 12.3mph /  19.8km/h 76.8% 0in /  0.0mm
22:24 73 °F /  22.8 °C 65.5 °F /  18.6 °C 29.9in /  1012.2hPa NE 6.2mph /  10km/h 13.8mph /  22.2km/h 77.3% 0in /  0.0mm
22:29 72.9 °F /  22.7 °C 65.7 °F /  18.7 °C 29.9in /  1012.2hPa NNE 7.6mph /  12.2km/h 12.7mph /  20.4km/h 78% 0in /  0.0mm
22:34 72.9 °F /  22.7 °C 65.5 °F /  18.6 °C 29.9in /  1012.2hPa NE 8.5mph /  13.7km/h 13mph /  20.9km/h 78% 0in /  0.0mm
22:39 72.9 °F /  22.7 °C 65.5 °F /  18.6 °C 29.9in /  1012.2hPa NE 7.3mph /  11.7km/h 8.5mph /  13.7km/h 78% 0in /  0.0mm
22:44 72.7 °F /  22.6 °C 65.7 °F /  18.7 °C 29.9in /  1012.2hPa NE 6.4mph /  10.3km/h 10.4mph /  16.7km/h 78.6% 0in /  0.0mm
22:49 72.7 °F /  22.6 °C 65.7 °F /  18.7 °C 29.9in /  1012.2hPa NE 6.7mph /  10.8km/h 11.8mph /  19km/h 79% 0in /  0.0mm
22:54 72.5 °F /  22.5 °C 65.5 °F /  18.6 °C 29.9in /  1012.2hPa NE 6.9mph /  11.1km/h 11.5mph /  18.5km/h 79% 0in /  0.0mm
22:59 72.3 °F /  22.4 °C 65.5 °F /  18.6 °C 29.9in /  1012.2hPa NE 6.6mph /  10.6km/h 12mph /  19.3km/h 79.3% 0in /  0.0mm
23:04 72.3 °F /  22.4 °C 65.8 °F /  18.8 °C 29.9in /  1012.2hPa ENE 6.4mph /  10.3km/h 11mph /  17.7km/h 80% 0in /  0.0mm
23:09 72.3 °F /  22.4 °C 65.8 °F /  18.8 °C 29.9in /  1013.0hPa Este 6.1mph /  9.8km/h 10mph /  16.1km/h 80% 0in /  0.0mm
23:14 72.3 °F /  22.4 °C 65.8 °F /  18.8 °C 29.9in /  1013.0hPa Este 5.9mph /  9.5km/h 8.5mph /  13.7km/h 80% 0in /  0.0mm
23:19 72.5 °F /  22.5 °C 66 °F /  18.9 °C 29.9in /  1013.0hPa Este 5.2mph /  8.4km/h 9mph /  14.5km/h 80% 0in /  0.0mm
23:24 72.5 °F /  22.5 °C 65.8 °F /  18.8 °C 29.9in /  1013.1hPa ENE 4.7mph /  7.6km/h 7mph /  11.3km/h 80% 0in /  0.0mm
Murcia-Puente Tocinos, España
Compliments of Weather Underground - 3 mb

La estación de MeteoMurcia.com, publica sus datos en los siguientes proyectos:

Weather Underground PWS IMURCIAP2 Meteoclimatic www.awekas.at

W3Counter
Web Analytics